sensor_id;sensor_type;location;lat;lon;timestamp;P1;durP1;ratioP1;P2;durP2;ratioP2
68010;SDS011;54794;48.348;7.878;2022-12-10T00:01:47;5.30;;;3.42;;
68010;SDS011;54794;48.348;7.878;2022-12-10T00:04:15;6.60;;;3.75;;
68010;SDS011;54794;48.348;7.878;2022-12-10T00:06:43;5.72;;;3.22;;
68010;SDS011;54794;48.348;7.878;2022-12-10T00:09:11;5.13;;;3.08;;
68010;SDS011;54794;48.348;7.878;2022-12-10T00:11:41;4.75;;;3.28;;
68010;SDS011;54794;48.348;7.878;2022-12-10T00:14:09;5.35;;;3.45;;
68010;SDS011;54794;48.348;7.878;2022-12-10T00:16:38;5.65;;;3.65;;
68010;SDS011;54794;48.348;7.878;2022-12-10T00:19:06;6.53;;;3.25;;
68010;SDS011;54794;48.348;7.878;2022-12-10T00:21:34;4.72;;;3.00;;
68010;SDS011;54794;48.348;7.878;2022-12-10T00:24:03;5.90;;;3.35;;
68010;SDS011;54794;48.348;7.878;2022-12-10T00:26:32;5.05;;;2.80;;
68010;SDS011;54794;48.348;7.878;2022-12-10T00:29:03;4.88;;;3.05;;
68010;SDS011;54794;48.348;7.878;2022-12-10T00:31:35;5.10;;;3.22;;
68010;SDS011;54794;48.348;7.878;2022-12-10T00:34:05;4.55;;;3.22;;
68010;SDS011;54794;48.348;7.878;2022-12-10T00:36:36;4.05;;;2.75;;
68010;SDS011;54794;48.348;7.878;2022-12-10T00:39:08;4.22;;;2.80;;
68010;SDS011;54794;48.348;7.878;2022-12-10T00:41:38;5.35;;;2.67;;
68010;SDS011;54794;48.348;7.878;2022-12-10T00:46:32;3.95;;;2.58;;
68010;SDS011;54794;48.348;7.878;2022-12-10T00:48:59;6.93;;;3.05;;
68010;SDS011;54794;48.348;7.878;2022-12-10T00:51:27;5.30;;;3.00;;
68010;SDS011;54794;48.348;7.878;2022-12-10T00:53:55;4.57;;;3.25;;
68010;SDS011;54794;48.348;7.878;2022-12-10T00:56:25;5.20;;;3.10;;
68010;SDS011;54794;48.348;7.878;2022-12-10T00:58:55;4.05;;;2.70;;
68010;SDS011;54794;48.348;7.878;2022-12-10T01:03:54;5.05;;;2.35;;
68010;SDS011;54794;48.348;7.878;2022-12-10T01:06:28;4.28;;;2.97;;
68010;SDS011;54794;48.348;7.878;2022-12-10T01:09:08;4.22;;;3.03;;
68010;SDS011;54794;48.348;7.878;2022-12-10T01:11:38;5.97;;;3.30;;
68010;SDS011;54794;48.348;7.878;2022-12-10T01:14:09;4.40;;;2.75;;
68010;SDS011;54794;48.348;7.878;2022-12-10T01:16:40;4.32;;;2.80;;
68010;SDS011;54794;48.348;7.878;2022-12-10T01:19:07;5.03;;;2.78;;
68010;SDS011;54794;48.348;7.878;2022-12-10T01:21:34;4.63;;;2.92;;
68010;SDS011;54794;48.348;7.878;2022-12-10T01:24:02;4.18;;;2.70;;
68010;SDS011;54794;48.348;7.878;2022-12-10T01:26:31;5.00;;;3.05;;
68010;SDS011;54794;48.348;7.878;2022-12-10T01:29:00;4.72;;;3.25;;
68010;SDS011;54794;48.348;7.878;2022-12-10T01:31:33;4.88;;;3.10;;
68010;SDS011;54794;48.348;7.878;2022-12-10T01:34:02;4.75;;;2.83;;
68010;SDS011;54794;48.348;7.878;2022-12-10T01:36:32;8.07;;;4.53;;
68010;SDS011;54794;48.348;7.878;2022-12-10T01:39:07;5.95;;;3.30;;
68010;SDS011;54794;48.348;7.878;2022-12-10T01:41:38;5.72;;;3.22;;
68010;SDS011;54794;48.348;7.878;2022-12-10T01:49:06;4.55;;;2.90;;
68010;SDS011;54794;48.348;7.878;2022-12-10T01:51:38;4.07;;;2.80;;
68010;SDS011;54794;48.348;7.878;2022-12-10T01:54:10;4.53;;;2.88;;
68010;SDS011;54794;48.348;7.878;2022-12-10T01:56:43;5.50;;;3.38;;
68010;SDS011;54794;48.348;7.878;2022-12-10T01:59:16;5.43;;;3.13;;
68010;SDS011;54794;48.348;7.878;2022-12-10T02:01:55;4.50;;;2.95;;
68010;SDS011;54794;48.348;7.878;2022-12-10T02:07:59;5.70;;;3.30;;
68010;SDS011;54794;48.348;7.878;2022-12-10T02:13:36;4.22;;;2.80;;
68010;SDS011;54794;48.348;7.878;2022-12-10T02:19:15;6.68;;;3.80;;
68010;SDS011;54794;48.348;7.878;2022-12-10T02:21:50;7.78;;;3.38;;
68010;SDS011;54794;48.348;7.878;2022-12-10T02:24:23;8.27;;;3.50;;
68010;SDS011;54794;48.348;7.878;2022-12-10T02:29:52;5.32;;;3.35;;
68010;SDS011;54794;48.348;7.878;2022-12-10T02:32:23;4.55;;;3.38;;
68010;SDS011;54794;48.348;7.878;2022-12-10T02:34:58;4.05;;;2.30;;
68010;SDS011;54794;48.348;7.878;2022-12-10T02:37:34;5.43;;;3.08;;
68010;SDS011;54794;48.348;7.878;2022-12-10T02:40:11;5.40;;;2.80;;
68010;SDS011;54794;48.348;7.878;2022-12-10T02:42:46;5.28;;;3.08;;
68010;SDS011;54794;48.348;7.878;2022-12-10T02:45:17;5.07;;;3.25;;
68010;SDS011;54794;48.348;7.878;2022-12-10T02:47:47;5.07;;;3.28;;
68010;SDS011;54794;48.348;7.878;2022-12-10T02:50:16;4.88;;;2.80;;
68010;SDS011;54794;48.348;7.878;2022-12-10T02:52:46;4.32;;;2.90;;
68010;SDS011;54794;48.348;7.878;2022-12-10T02:55:13;5.05;;;3.03;;
68010;SDS011;54794;48.348;7.878;2022-12-10T03:00:50;4.90;;;2.67;;
68010;SDS011;54794;48.348;7.878;2022-12-10T03:03:50;3.22;;;2.45;;
68010;SDS011;54794;48.348;7.878;2022-12-10T03:06:27;4.65;;;2.70;;
68010;SDS011;54794;48.348;7.878;2022-12-10T03:09:08;3.97;;;2.53;;
68010;SDS011;54794;48.348;7.878;2022-12-10T03:11:46;5.20;;;3.13;;
68010;SDS011;54794;48.348;7.878;2022-12-10T03:14:22;4.35;;;2.80;;
68010;SDS011;54794;48.348;7.878;2022-12-10T03:16:56;5.93;;;3.35;;
68010;SDS011;54794;48.348;7.878;2022-12-10T03:19:33;6.43;;;3.03;;
68010;SDS011;54794;48.348;7.878;2022-12-10T03:22:08;5.20;;;3.08;;
68010;SDS011;54794;48.348;7.878;2022-12-10T03:24:38;5.75;;;3.17;;
68010;SDS011;54794;48.348;7.878;2022-12-10T03:27:09;4.50;;;3.03;;
68010;SDS011;54794;48.348;7.878;2022-12-10T03:29:47;5.38;;;3.17;;
68010;SDS011;54794;48.348;7.878;2022-12-10T03:32:18;6.13;;;3.20;;
68010;SDS011;54794;48.348;7.878;2022-12-10T03:34:49;4.57;;;2.60;;
68010;SDS011;54794;48.348;7.878;2022-12-10T03:37:20;4.32;;;2.67;;
68010;SDS011;54794;48.348;7.878;2022-12-10T03:39:50;5.68;;;3.35;;
68010;SDS011;54794;48.348;7.878;2022-12-10T03:42:17;5.22;;;3.40;;
68010;SDS011;54794;48.348;7.878;2022-12-10T03:44:44;5.47;;;3.00;;
68010;SDS011;54794;48.348;7.878;2022-12-10T03:47:15;3.90;;;2.53;;
68010;SDS011;54794;48.348;7.878;2022-12-10T03:49:42;5.65;;;3.38;;
68010;SDS011;54794;48.348;7.878;2022-12-10T03:52:10;4.43;;;3.10;;
68010;SDS011;54794;48.348;7.878;2022-12-10T03:54:38;6.07;;;3.83;;
68010;SDS011;54794;48.348;7.878;2022-12-10T03:57:05;4.82;;;3.25;;
68010;SDS011;54794;48.348;7.878;2022-12-10T03:59:32;5.47;;;2.95;;
68010;SDS011;54794;48.348;7.878;2022-12-10T04:01:59;5.57;;;3.45;;
68010;SDS011;54794;48.348;7.878;2022-12-10T04:04:26;4.45;;;2.97;;
68010;SDS011;54794;48.348;7.878;2022-12-10T04:06:53;5.68;;;3.42;;
68010;SDS011;54794;48.348;7.878;2022-12-10T04:09:20;4.97;;;3.10;;
68010;SDS011;54794;48.348;7.878;2022-12-10T04:11:47;6.75;;;4.15;;
68010;SDS011;54794;48.348;7.878;2022-12-10T04:14:14;6.78;;;4.07;;
68010;SDS011;54794;48.348;7.878;2022-12-10T04:16:59;6.50;;;4.18;;
68010;SDS011;54794;48.348;7.878;2022-12-10T04:19:26;6.40;;;4.35;;
68010;SDS011;54794;48.348;7.878;2022-12-10T04:21:53;6.75;;;3.90;;
68010;SDS011;54794;48.348;7.878;2022-12-10T04:24:39;7.22;;;3.97;;
68010;SDS011;54794;48.348;7.878;2022-12-10T04:27:27;5.65;;;3.33;;
68010;SDS011;54794;48.348;7.878;2022-12-10T04:29:59;6.93;;;3.58;;
68010;SDS011;54794;48.348;7.878;2022-12-10T04:32:27;6.20;;;3.80;;
68010;SDS011;54794;48.348;7.878;2022-12-10T04:34:55;5.55;;;3.53;;
68010;SDS011;54794;48.348;7.878;2022-12-10T04:37:23;5.93;;;3.45;;
68010;SDS011;54794;48.348;7.878;2022-12-10T04:39:53;5.03;;;3.08;;
68010;SDS011;54794;48.348;7.878;2022-12-10T04:42:20;5.20;;;3.17;;
68010;SDS011;54794;48.348;7.878;2022-12-10T04:44:48;5.97;;;3.33;;
68010;SDS011;54794;48.348;7.878;2022-12-10T04:47:15;5.22;;;2.80;;
68010;SDS011;54794;48.348;7.878;2022-12-10T04:49:43;6.55;;;3.83;;
68010;SDS011;54794;48.348;7.878;2022-12-10T04:52:10;7.63;;;4.15;;
68010;SDS011;54794;48.348;7.878;2022-12-10T04:54:40;6.63;;;3.72;;
68010;SDS011;54794;48.348;7.878;2022-12-10T04:57:10;6.40;;;3.72;;
68010;SDS011;54794;48.348;7.878;2022-12-10T04:59:37;5.32;;;3.45;;
68010;SDS011;54794;48.348;7.878;2022-12-10T05:02:04;6.18;;;3.80;;
68010;SDS011;54794;48.348;7.878;2022-12-10T05:06:59;6.38;;;3.28;;
68010;SDS011;54794;48.348;7.878;2022-12-10T05:09:26;7.15;;;3.55;;
68010;SDS011;54794;48.348;7.878;2022-12-10T05:11:53;6.93;;;3.92;;
68010;SDS011;54794;48.348;7.878;2022-12-10T05:14:20;5.60;;;3.30;;
68010;SDS011;54794;48.348;7.878;2022-12-10T05:16:48;5.57;;;3.33;;
68010;SDS011;54794;48.348;7.878;2022-12-10T05:19:17;6.57;;;3.97;;
68010;SDS011;54794;48.348;7.878;2022-12-10T05:21:49;6.13;;;3.40;;
68010;SDS011;54794;48.348;7.878;2022-12-10T05:24:34;7.40;;;3.67;;
68010;SDS011;54794;48.348;7.878;2022-12-10T05:27:02;6.03;;;3.92;;
68010;SDS011;54794;48.348;7.878;2022-12-10T05:29:29;6.03;;;3.30;;
68010;SDS011;54794;48.348;7.878;2022-12-10T05:31:55;5.88;;;2.83;;
68010;SDS011;54794;48.348;7.878;2022-12-10T05:34:22;6.22;;;3.70;;
68010;SDS011;54794;48.348;7.878;2022-12-10T05:36:49;6.18;;;3.67;;
68010;SDS011;54794;48.348;7.878;2022-12-10T05:39:16;6.80;;;4.00;;
68010;SDS011;54794;48.348;7.878;2022-12-10T05:41:43;7.30;;;4.13;;
68010;SDS011;54794;48.348;7.878;2022-12-10T05:44:11;6.55;;;3.63;;
68010;SDS011;54794;48.348;7.878;2022-12-10T05:46:38;7.20;;;3.83;;
68010;SDS011;54794;48.348;7.878;2022-12-10T05:49:06;5.32;;;3.63;;
68010;SDS011;54794;48.348;7.878;2022-12-10T05:51:34;7.35;;;4.03;;
68010;SDS011;54794;48.348;7.878;2022-12-10T05:54:03;7.10;;;4.15;;
68010;SDS011;54794;48.348;7.878;2022-12-10T05:56:32;7.18;;;3.90;;
68010;SDS011;54794;48.348;7.878;2022-12-10T05:59:01;8.18;;;3.95;;
68010;SDS011;54794;48.348;7.878;2022-12-10T06:01:31;6.38;;;3.67;;
68010;SDS011;54794;48.348;7.878;2022-12-10T06:04:01;8.05;;;3.95;;
68010;SDS011;54794;48.348;7.878;2022-12-10T06:06:32;6.60;;;4.03;;
68010;SDS011;54794;48.348;7.878;2022-12-10T06:09:04;7.53;;;4.22;;
68010;SDS011;54794;48.348;7.878;2022-12-10T06:11:33;7.68;;;4.15;;
68010;SDS011;54794;48.348;7.878;2022-12-10T06:14:01;6.05;;;3.83;;
68010;SDS011;54794;48.348;7.878;2022-12-10T06:16:28;6.90;;;4.20;;
68010;SDS011;54794;48.348;7.878;2022-12-10T06:18:55;7.20;;;4.30;;
68010;SDS011;54794;48.348;7.878;2022-12-10T06:21:23;9.02;;;3.90;;
68010;SDS011;54794;48.348;7.878;2022-12-10T06:23:50;7.00;;;3.75;;
68010;SDS011;54794;48.348;7.878;2022-12-10T06:26:20;6.28;;;3.83;;
68010;SDS011;54794;48.348;7.878;2022-12-10T06:28:50;7.82;;;4.60;;
68010;SDS011;54794;48.348;7.878;2022-12-10T06:31:20;6.75;;;4.38;;
68010;SDS011;54794;48.348;7.878;2022-12-10T06:33:48;6.25;;;3.97;;
68010;SDS011;54794;48.348;7.878;2022-12-10T06:36:16;7.43;;;4.38;;
68010;SDS011;54794;48.348;7.878;2022-12-10T06:38:44;8.40;;;4.78;;
68010;SDS011;54794;48.348;7.878;2022-12-10T06:41:13;9.55;;;3.28;;
68010;SDS011;54794;48.348;7.878;2022-12-10T06:43:41;7.70;;;4.60;;
68010;SDS011;54794;48.348;7.878;2022-12-10T06:46:10;7.60;;;4.30;;
68010;SDS011;54794;48.348;7.878;2022-12-10T06:48:40;6.82;;;3.83;;
68010;SDS011;54794;48.348;7.878;2022-12-10T06:51:08;8.48;;;4.68;;
68010;SDS011;54794;48.348;7.878;2022-12-10T06:53:38;9.13;;;4.60;;
68010;SDS011;54794;48.348;7.878;2022-12-10T06:56:07;7.57;;;4.57;;
68010;SDS011;54794;48.348;7.878;2022-12-10T06:58:38;6.72;;;4.22;;
68010;SDS011;54794;48.348;7.878;2022-12-10T07:01:09;7.00;;;4.20;;
68010;SDS011;54794;48.348;7.878;2022-12-10T07:03:42;7.32;;;4.32;;
68010;SDS011;54794;48.348;7.878;2022-12-10T07:06:10;7.22;;;4.25;;
68010;SDS011;54794;48.348;7.878;2022-12-10T07:08:38;5.70;;;3.45;;
68010;SDS011;54794;48.348;7.878;2022-12-10T07:11:05;6.13;;;3.75;;
68010;SDS011;54794;48.348;7.878;2022-12-10T07:13:35;7.75;;;4.30;;
68010;SDS011;54794;48.348;7.878;2022-12-10T07:16:11;6.93;;;4.15;;
68010;SDS011;54794;48.348;7.878;2022-12-10T07:18:47;7.72;;;4.10;;
68010;SDS011;54794;48.348;7.878;2022-12-10T07:21:21;6.68;;;3.95;;
68010;SDS011;54794;48.348;7.878;2022-12-10T07:23:53;6.97;;;4.32;;
68010;SDS011;54794;48.348;7.878;2022-12-10T07:26:25;8.07;;;4.72;;
68010;SDS011;54794;48.348;7.878;2022-12-10T07:28:54;7.05;;;3.97;;
68010;SDS011;54794;48.348;7.878;2022-12-10T07:31:22;7.53;;;4.03;;
68010;SDS011;54794;48.348;7.878;2022-12-10T07:33:50;7.00;;;4.38;;
68010;SDS011;54794;48.348;7.878;2022-12-10T07:36:19;9.13;;;4.32;;
68010;SDS011;54794;48.348;7.878;2022-12-10T07:38:51;7.30;;;4.10;;
68010;SDS011;54794;48.348;7.878;2022-12-10T07:41:22;8.57;;;4.45;;
68010;SDS011;54794;48.348;7.878;2022-12-10T07:43:51;7.65;;;4.20;;
68010;SDS011;54794;48.348;7.878;2022-12-10T07:46:36;8.63;;;4.50;;
68010;SDS011;54794;48.348;7.878;2022-12-10T07:49:04;7.55;;;3.88;;
68010;SDS011;54794;48.348;7.878;2022-12-10T07:51:31;6.65;;;4.25;;
68010;SDS011;54794;48.348;7.878;2022-12-10T07:53:58;6.82;;;4.25;;
68010;SDS011;54794;48.348;7.878;2022-12-10T07:56:25;8.32;;;4.25;;
68010;SDS011;54794;48.348;7.878;2022-12-10T07:58:58;7.45;;;4.25;;
68010;SDS011;54794;48.348;7.878;2022-12-10T08:01:25;8.48;;;4.60;;
68010;SDS011;54794;48.348;7.878;2022-12-10T08:03:53;7.45;;;4.53;;
68010;SDS011;54794;48.348;7.878;2022-12-10T08:06:23;8.93;;;4.82;;
68010;SDS011;54794;48.348;7.878;2022-12-10T08:08:52;7.28;;;4.28;;
68010;SDS011;54794;48.348;7.878;2022-12-10T08:11:21;7.55;;;4.65;;
68010;SDS011;54794;48.348;7.878;2022-12-10T08:13:49;6.80;;;4.13;;
68010;SDS011;54794;48.348;7.878;2022-12-10T08:16:22;8.30;;;4.22;;
68010;SDS011;54794;48.348;7.878;2022-12-10T08:18:52;7.65;;;4.22;;
68010;SDS011;54794;48.348;7.878;2022-12-10T08:21:27;8.75;;;4.65;;
68010;SDS011;54794;48.348;7.878;2022-12-10T08:23:56;7.68;;;4.15;;
68010;SDS011;54794;48.348;7.878;2022-12-10T08:28:54;5.15;;;3.28;;
68010;SDS011;54794;48.348;7.878;2022-12-10T08:31:22;8.57;;;4.65;;
68010;SDS011;54794;48.348;7.878;2022-12-10T08:33:50;7.20;;;4.32;;
68010;SDS011;54794;48.348;7.878;2022-12-10T08:36:18;6.82;;;4.57;;
68010;SDS011;54794;48.348;7.878;2022-12-10T08:38:46;8.40;;;4.57;;
68010;SDS011;54794;48.348;7.878;2022-12-10T08:41:20;10.40;;;4.82;;
68010;SDS011;54794;48.348;7.878;2022-12-10T08:43:56;7.10;;;4.50;;
68010;SDS011;54794;48.348;7.878;2022-12-10T08:46:22;7.95;;;4.60;;
68010;SDS011;54794;48.348;7.878;2022-12-10T08:48:51;10.02;;;4.50;;
68010;SDS011;54794;48.348;7.878;2022-12-10T08:51:18;8.02;;;4.60;;
68010;SDS011;54794;48.348;7.878;2022-12-10T08:53:46;9.27;;;4.55;;
68010;SDS011;54794;48.348;7.878;2022-12-10T08:56:13;7.65;;;3.95;;
68010;SDS011;54794;48.348;7.878;2022-12-10T08:58:40;7.80;;;4.53;;
68010;SDS011;54794;48.348;7.878;2022-12-10T09:01:08;7.80;;;4.28;;
68010;SDS011;54794;48.348;7.878;2022-12-10T09:03:38;7.68;;;4.28;;
68010;SDS011;54794;48.348;7.878;2022-12-10T09:06:05;8.73;;;4.68;;
68010;SDS011;54794;48.348;7.878;2022-12-10T09:08:36;8.02;;;4.80;;
68010;SDS011;54794;48.348;7.878;2022-12-10T09:11:07;8.90;;;4.88;;
68010;SDS011;54794;48.348;7.878;2022-12-10T09:13:36;10.13;;;4.60;;
68010;SDS011;54794;48.348;7.878;2022-12-10T09:16:03;7.47;;;4.70;;
68010;SDS011;54794;48.348;7.878;2022-12-10T09:18:31;10.00;;;4.82;;
68010;SDS011;54794;48.348;7.878;2022-12-10T09:20:58;9.75;;;5.22;;
68010;SDS011;54794;48.348;7.878;2022-12-10T09:23:25;9.07;;;4.70;;
68010;SDS011;54794;48.348;7.878;2022-12-10T09:25:52;8.70;;;4.80;;
68010;SDS011;54794;48.348;7.878;2022-12-10T09:28:19;7.93;;;4.43;;
68010;SDS011;54794;48.348;7.878;2022-12-10T09:30:50;9.45;;;5.53;;
68010;SDS011;54794;48.348;7.878;2022-12-10T09:33:23;9.82;;;5.07;;
68010;SDS011;54794;48.348;7.878;2022-12-10T09:35:51;9.73;;;5.35;;
68010;SDS011;54794;48.348;7.878;2022-12-10T09:38:18;9.65;;;4.97;;
68010;SDS011;54794;48.348;7.878;2022-12-10T09:40:47;9.93;;;5.00;;
68010;SDS011;54794;48.348;7.878;2022-12-10T09:43:47;9.07;;;4.55;;
68010;SDS011;54794;48.348;7.878;2022-12-10T09:46:57;6.60;;;3.83;;
68010;SDS011;54794;48.348;7.878;2022-12-10T09:52:09;7.80;;;4.15;;
68010;SDS011;54794;48.348;7.878;2022-12-10T09:54:45;8.20;;;4.60;;
68010;SDS011;54794;48.348;7.878;2022-12-10T09:57:41;7.85;;;4.43;;
68010;SDS011;54794;48.348;7.878;2022-12-10T10:02:46;8.35;;;4.72;;
68010;SDS011;54794;48.348;7.878;2022-12-10T10:05:19;8.32;;;4.90;;
68010;SDS011;54794;48.348;7.878;2022-12-10T10:07:52;9.73;;;4.63;;
68010;SDS011;54794;48.348;7.878;2022-12-10T10:13:12;7.60;;;4.28;;
68010;SDS011;54794;48.348;7.878;2022-12-10T10:21:49;7.45;;;4.32;;
68010;SDS011;54794;48.348;7.878;2022-12-10T10:24:21;6.85;;;4.10;;
68010;SDS011;54794;48.348;7.878;2022-12-10T10:26:57;7.55;;;4.50;;
68010;SDS011;54794;48.348;7.878;2022-12-10T10:29:34;8.50;;;4.82;;
68010;SDS011;54794;48.348;7.878;2022-12-10T10:32:12;8.73;;;4.70;;
68010;SDS011;54794;48.348;7.878;2022-12-10T10:34:43;9.32;;;4.57;;
68010;SDS011;54794;48.348;7.878;2022-12-10T10:37:14;8.57;;;4.13;;
68010;SDS011;54794;48.348;7.878;2022-12-10T10:39:55;9.68;;;5.15;;
68010;SDS011;54794;48.348;7.878;2022-12-10T10:48:44;7.45;;;4.43;;
68010;SDS011;54794;48.348;7.878;2022-12-10T10:56:20;7.25;;;4.30;;
68010;SDS011;54794;48.348;7.878;2022-12-10T11:01:48;9.05;;;4.90;;
68010;SDS011;54794;48.348;7.878;2022-12-10T11:04:21;7.80;;;4.97;;
68010;SDS011;54794;48.348;7.878;2022-12-10T11:07:03;7.40;;;4.50;;
68010;SDS011;54794;48.348;7.878;2022-12-10T11:09:47;7.50;;;4.28;;
68010;SDS011;54794;48.348;7.878;2022-12-10T11:12:28;7.47;;;4.40;;
68010;SDS011;54794;48.348;7.878;2022-12-10T11:17:51;6.60;;;3.72;;
68010;SDS011;54794;48.348;7.878;2022-12-10T11:20:23;9.15;;;5.10;;
68010;SDS011;54794;48.348;7.878;2022-12-10T11:22:51;8.02;;;4.40;;
68010;SDS011;54794;48.348;7.878;2022-12-10T11:28:34;6.07;;;3.47;;
68010;SDS011;54794;48.348;7.878;2022-12-10T11:48:00;8.90;;;5.28;;
68010;SDS011;54794;48.348;7.878;2022-12-10T11:50:34;8.20;;;4.25;;
68010;SDS011;54794;48.348;7.878;2022-12-10T12:02:42;6.32;;;4.03;;
68010;SDS011;54794;48.348;7.878;2022-12-10T12:11:47;6.82;;;4.03;;
68010;SDS011;54794;48.348;7.878;2022-12-10T12:15:02;5.18;;;3.17;;
68010;SDS011;54794;48.348;7.878;2022-12-10T12:18:09;5.88;;;3.53;;
68010;SDS011;54794;48.348;7.878;2022-12-10T12:23:34;6.80;;;3.92;;
68010;SDS011;54794;48.348;7.878;2022-12-10T12:26:38;6.95;;;4.00;;
68010;SDS011;54794;48.348;7.878;2022-12-10T12:32:55;6.97;;;3.88;;
68010;SDS011;54794;48.348;7.878;2022-12-10T12:37:48;9.20;;;4.75;;
68010;SDS011;54794;48.348;7.878;2022-12-10T12:40:42;6.80;;;4.13;;
68010;SDS011;54794;48.348;7.878;2022-12-10T12:43:19;6.00;;;3.92;;
68010;SDS011;54794;48.348;7.878;2022-12-10T12:45:54;7.15;;;4.28;;
68010;SDS011;54794;48.348;7.878;2022-12-10T12:51:12;6.13;;;3.37;;
68010;SDS011;54794;48.348;7.878;2022-12-10T12:53:40;7.38;;;4.07;;
68010;SDS011;54794;48.348;7.878;2022-12-10T13:02:01;6.15;;;3.75;;
68010;SDS011;54794;48.348;7.878;2022-12-10T13:04:52;5.38;;;3.20;;
68010;SDS011;54794;48.348;7.878;2022-12-10T13:09:47;6.37;;;4.10;;
68010;SDS011;54794;48.348;7.878;2022-12-10T13:20:45;5.47;;;3.38;;
68010;SDS011;54794;48.348;7.878;2022-12-10T13:28:26;6.85;;;3.85;;
68010;SDS011;54794;48.348;7.878;2022-12-10T13:33:51;6.60;;;3.72;;
68010;SDS011;54794;48.348;7.878;2022-12-10T13:39:31;6.00;;;3.63;;
68010;SDS011;54794;48.348;7.878;2022-12-10T13:50:17;7.55;;;4.00;;
68010;SDS011;54794;48.348;7.878;2022-12-10T14:01:54;4.97;;;3.05;;
68010;SDS011;54794;48.348;7.878;2022-12-10T14:04:56;5.50;;;3.40;;
68010;SDS011;54794;48.348;7.878;2022-12-10T14:08:08;4.53;;;2.95;;
68010;SDS011;54794;48.348;7.878;2022-12-10T14:10:44;5.82;;;3.53;;
68010;SDS011;54794;48.348;7.878;2022-12-10T14:13:13;6.68;;;3.58;;
68010;SDS011;54794;48.348;7.878;2022-12-10T14:34:48;6.63;;;3.50;;
68010;SDS011;54794;48.348;7.878;2022-12-10T14:37:23;6.35;;;3.42;;
68010;SDS011;54794;48.348;7.878;2022-12-10T14:39:55;5.65;;;3.28;;
68010;SDS011;54794;48.348;7.878;2022-12-10T14:42:22;5.70;;;3.75;;
68010;SDS011;54794;48.348;7.878;2022-12-10T14:44:51;5.57;;;3.38;;
68010;SDS011;54794;48.348;7.878;2022-12-10T14:47:25;6.18;;;3.53;;
68010;SDS011;54794;48.348;7.878;2022-12-10T14:49:57;5.82;;;3.15;;
68010;SDS011;54794;48.348;7.878;2022-12-10T14:52:32;5.32;;;3.30;;
68010;SDS011;54794;48.348;7.878;2022-12-10T14:55:10;5.78;;;3.40;;
68010;SDS011;54794;48.348;7.878;2022-12-10T14:57:45;6.78;;;3.30;;
68010;SDS011;54794;48.348;7.878;2022-12-10T15:00:22;5.95;;;3.28;;
68010;SDS011;54794;48.348;7.878;2022-12-10T15:05:27;3.85;;;2.53;;
68010;SDS011;54794;48.348;7.878;2022-12-10T15:10:38;5.18;;;3.28;;
68010;SDS011;54794;48.348;7.878;2022-12-10T15:13:20;4.30;;;2.97;;
68010;SDS011;54794;48.348;7.878;2022-12-10T15:15:53;4.45;;;3.05;;
68010;SDS011;54794;48.348;7.878;2022-12-10T15:18:25;5.55;;;3.28;;
68010;SDS011;54794;48.348;7.878;2022-12-10T15:21:15;6.03;;;3.30;;
68010;SDS011;54794;48.348;7.878;2022-12-10T15:23:47;5.65;;;3.72;;
68010;SDS011;54794;48.348;7.878;2022-12-10T15:28:51;7.10;;;3.67;;
68010;SDS011;54794;48.348;7.878;2022-12-10T15:32:27;4.93;;;3.25;;
68010;SDS011;54794;48.348;7.878;2022-12-10T15:34:55;6.60;;;3.28;;
68010;SDS011;54794;48.348;7.878;2022-12-10T15:37:34;5.25;;;3.50;;
68010;SDS011;54794;48.348;7.878;2022-12-10T15:40:22;5.35;;;3.20;;
68010;SDS011;54794;48.348;7.878;2022-12-10T15:42:56;5.18;;;3.30;;
